Time;durP1;ratioP1;P1;durP2;ratioP2;P2;SDS_P1;SDS_P2;PMS_P1;PMS_P2;Temp;Humidity;BMP_temperature;BMP_pressure;BME280_temperature;BME280_humidity;BME280_pressure;Samples;Min_cycle;Max_cycle;Signal;HPM_P1;HPM_P2
2021/06/19 00:02:15;;;;;;;4.18;3.40;;;24.30;55.20;;;;;;4997000;28;20405;-69
2021/06/19 00:04:40;;;;;;;5.15;3.85;;;24.30;55.80;;;;;;4994303;28;20041;-69
2021/06/19 00:07:06;;;;;;;3.80;3.40;;;24.30;55.40;;;;;;4995541;28;20772;-69
2021/06/19 00:09:32;;;;;;;4.88;3.65;;;24.20;55.30;;;;;;5000824;28;20038;-69
2021/06/19 00:11:59;;;;;;;5.85;3.75;;;24.20;55.10;;;;;;4995496;28;20116;-69
2021/06/19 00:14:25;;;;;;;4.43;3.33;;;24.20;55.20;;;;;;4989597;28;20116;-69
2021/06/19 00:16:51;;;;;;;4.20;3.60;;;24.20;55.30;;;;;;4997169;28;20085;-69
2021/06/19 00:19:17;;;;;;;7.43;3.65;;;24.10;55.40;;;;;;4994933;28;20124;-69
2021/06/19 00:21:42;;;;;;;4.72;4.13;;;24.10;55.90;;;;;;4984436;28;20093;-69
2021/06/19 00:24:10;;;;;;;6.95;4.40;;;24.10;55.90;;;;;;4991748;28;20636;-69
2021/06/19 00:26:37;;;;;;;7.13;4.05;;;24.10;55.90;;;;;;4992642;28;20099;-69
2021/06/19 00:29:03;;;;;;;7.55;4.70;;;24.00;56.00;;;;;;4993448;28;20034;-69
2021/06/19 00:31:28;;;;;;;5.55;4.25;;;24.00;56.30;;;;;;4996264;28;20037;-69
2021/06/19 00:33:54;;;;;;;4.13;3.72;;;23.90;56.50;;;;;;4999449;28;20070;-69
2021/06/19 00:36:20;;;;;;;4.38;3.92;;;23.90;57.30;;;;;;4997284;28;20030;-69
2021/06/19 00:38:45;;;;;;;4.20;3.80;;;23.80;57.00;;;;;;4995567;28;20529;-69
2021/06/19 00:41:11;;;;;;;5.50;4.22;;;23.80;57.10;;;;;;4997880;28;20035;-69
2021/06/19 00:43:37;;;;;;;7.43;3.80;;;23.80;57.60;;;;;;4991981;28;20207;-69
2021/06/19 00:46:03;;;;;;;5.03;3.85;;;23.80;57.60;;;;;;4992987;28;20038;-69
2021/06/19 00:48:28;;;;;;;6.55;4.20;;;23.80;57.70;;;;;;4998740;28;20046;-69
2021/06/19 00:50:54;;;;;;;5.15;3.92;;;23.80;57.90;;;;;;5000623;28;20025;-70
2021/06/19 00:53:19;;;;;;;4.43;3.75;;;23.80;58.00;;;;;;4993305;28;20040;-70
2021/06/19 00:55:45;;;;;;;6.47;4.53;;;23.80;58.50;;;;;;4998758;28;20601;-69
2021/06/19 00:58:12;;;;;;;4.90;4.30;;;23.80;58.00;;;;;;4995011;28;20038;-69
2021/06/19 01:00:38;;;;;;;6.20;4.80;;;23.80;58.10;;;;;;4996373;28;20172;-69
2021/06/19 01:03:04;;;;;;;5.75;4.53;;;23.80;58.50;;;;;;4994532;28;20514;-69
2021/06/19 01:05:31;;;;;;;7.57;5.00;;;23.70;58.70;;;;;;5003400;28;20129;-69
2021/06/19 01:07:58;;;;;;;5.32;4.40;;;23.70;59.10;;;;;;4996622;28;20049;-68
2021/06/19 01:10:25;;;;;;;7.90;4.47;;;23.70;59.00;;;;;;4990526;28;22079;-70
2021/06/19 01:12:51;;;;;;;5.25;4.53;;;23.70;58.80;;;;;;4997513;28;20116;-69
2021/06/19 01:15:17;;;;;;;5.15;4.55;;;23.70;58.80;;;;;;4998090;28;20034;-69
2021/06/19 01:17:44;;;;;;;6.05;4.30;;;23.70;58.60;;;;;;4997923;28;20029;-69
2021/06/19 01:20:13;;;;;;;5.10;4.60;;;23.70;58.90;;;;;;4995607;28;20096;-69
2021/06/19 01:22:42;;;;;;;5.95;4.13;;;23.70;59.20;;;;;;4994144;28;20307;-69
2021/06/19 01:25:11;;;;;;;5.93;4.35;;;23.80;58.80;;;;;;5007823;28;20034;-69
2021/06/19 01:27:37;;;;;;;5.20;4.40;;;23.80;58.80;;;;;;4991842;28;20132;-69
2021/06/19 01:30:06;;;;;;;5.25;4.75;;;23.80;59.40;;;;;;4991850;28;20057;-69
2021/06/19 01:32:37;;;;;;;7.00;4.45;;;23.80;59.10;;;;;;4991921;28;20572;-69
2021/06/19 01:35:03;;;;;;;5.05;4.60;;;23.80;59.30;;;;;;4991476;28;20177;-69
2021/06/19 01:37:29;;;;;;;5.32;4.72;;;23.80;59.00;;;;;;4993979;28;20038;-69
2021/06/19 01:40:09;;;;;;;5.25;4.75;;;23.70;59.00;;;;;;4991631;28;20033;-69
2021/06/19 01:42:38;;;;;;;4.63;4.30;;;23.70;59.40;;;;;;4991837;28;20097;-69
2021/06/19 01:45:04;;;;;;;5.78;4.55;;;23.70;59.20;;;;;;4991501;28;22025;-69
2021/06/19 01:47:30;;;;;;;4.68;4.28;;;23.70;58.90;;;;;;4996988;28;20035;-68
2021/06/19 01:49:56;;;;;;;6.80;5.00;;;23.70;59.20;;;;;;4996811;28;20034;-68
2021/06/19 01:52:22;;;;;;;7.43;4.68;;;23.60;59.40;;;;;;4996190;28;20178;-68
2021/06/19 01:54:47;;;;;;;6.68;5.07;;;23.60;59.50;;;;;;4996509;28;20033;-69
2021/06/19 01:57:13;;;;;;;7.30;5.13;;;23.60;59.70;;;;;;4997239;28;20109;-69
2021/06/19 01:59:39;;;;;;;8.45;5.20;;;23.50;59.80;;;;;;4993319;28;20042;-69
2021/06/19 02:02:04;;;;;;;6.60;4.97;;;23.50;59.90;;;;;;4995855;28;20030;-69
2021/06/19 02:04:31;;;;;;;5.03;4.60;;;23.40;60.20;;;;;;4999682;28;20030;-69
2021/06/19 02:06:57;;;;;;;8.82;4.57;;;23.40;60.40;;;;;;5003047;28;20104;-69
2021/06/19 02:09:23;;;;;;;5.63;5.10;;;23.30;60.60;;;;;;4999546;28;20110;-69
2021/06/19 02:11:49;;;;;;;8.70;5.35;;;23.30;61.00;;;;;;4997111;28;20049;-69
2021/06/19 02:14:15;;;;;;;5.75;4.55;;;23.20;61.20;;;;;;4999251;28;20066;-69
2021/06/19 02:16:42;;;;;;;5.10;4.55;;;23.20;61.30;;;;;;5000160;28;20642;-69
2021/06/19 02:19:08;;;;;;;5.47;4.47;;;23.20;61.00;;;;;;4999346;28;20066;-69
2021/06/19 02:21:34;;;;;;;7.80;5.57;;;23.10;61.40;;;;;;5009526;28;20057;-68
2021/06/19 02:24:00;;;;;;;6.32;5.03;;;23.10;61.70;;;;;;4994692;28;20136;-68
2021/06/19 02:26:25;;;;;;;5.97;5.00;;;23.10;61.70;;;;;;4998278;28;20034;-69
2021/06/19 02:28:51;;;;;;;6.45;5.13;;;23.10;62.00;;;;;;5000795;28;20046;-69
2021/06/19 02:31:17;;;;;;;5.15;4.72;;;23.10;62.10;;;;;;5000315;28;20148;-69
2021/06/19 02:33:46;;;;;;;8.48;5.10;;;23.00;62.70;;;;;;4995659;28;20031;-69
2021/06/19 02:36:12;;;;;;;6.18;5.00;;;23.10;62.30;;;;;;4996121;28;20152;-69
2021/06/19 02:38:37;;;;;;;5.82;4.72;;;23.00;62.50;;;;;;4995875;28;20785;-69
2021/06/19 02:41:04;;;;;;;5.60;5.10;;;23.00;62.40;;;;;;4999342;28;20030;-69
2021/06/19 02:43:29;;;;;;;6.70;5.00;;;23.00;62.10;;;;;;4996982;28;20030;-69
2021/06/19 02:45:59;;;;;;;7.38;5.25;;;23.10;62.30;;;;;;5000092;28;20053;-69
2021/06/19 02:48:27;;;;;;;5.55;5.05;;;23.10;62.60;;;;;;4995971;28;20038;-69
2021/06/19 02:50:54;;;;;;;5.45;4.95;;;23.10;62.60;;;;;;4998490;28;20113;-69
2021/06/19 02:53:19;;;;;;;6.45;4.78;;;23.00;62.30;;;;;;4994340;28;20516;-69
2021/06/19 02:55:45;;;;;;;6.13;4.85;;;23.00;62.30;;;;;;5000062;28;20038;-69
2021/06/19 02:58:12;;;;;;;5.80;5.25;;;23.00;62.70;;;;;;4997293;28;20120;-69
2021/06/19 03:00:39;;;;;;;6.80;5.00;;;23.00;62.70;;;;;;4995738;28;20038;-69
2021/06/19 03:03:06;;;;;;;6.90;4.75;;;23.00;62.90;;;;;;4997011;28;20041;-69
2021/06/19 03:05:33;;;;;;;7.65;5.38;;;23.00;63.30;;;;;;4996098;28;20508;-69
2021/06/19 03:08:00;;;;;;;6.93;4.90;;;23.10;63.40;;;;;;4994118;28;22594;-69
2021/06/19 03:10:31;;;;;;;9.75;4.75;;;23.00;63.30;;;;;;4995806;28;20505;-69
2021/06/19 03:12:58;;;;;;;8.90;5.50;;;23.00;63.10;;;;;;4998216;28;20104;-69
2021/06/19 03:15:24;;;;;;;7.13;5.15;;;22.90;63.10;;;;;;4997095;28;20038;-69
2021/06/19 03:17:50;;;;;;;7.22;5.25;;;22.90;63.40;;;;;;5008432;28;20049;-69
2021/06/19 03:20:16;;;;;;;5.88;5.25;;;22.90;63.60;;;;;;4995694;28;20041;-69
2021/06/19 03:22:45;;;;;;;7.63;5.47;;;22.90;63.60;;;;;;4996679;28;20046;-70
2021/06/19 03:25:14;;;;;;;6.90;5.50;;;22.80;63.70;;;;;;4996058;28;20697;-69
2021/06/19 03:27:40;;;;;;;7.32;5.07;;;22.80;64.20;;;;;;5001350;28;20058;-69
2021/06/19 03:30:07;;;;;;;9.30;5.28;;;22.70;64.00;;;;;;4998373;28;20042;-69
2021/06/19 03:32:33;;;;;;;9.15;5.65;;;22.70;64.40;;;;;;4994438;28;20045;-69
2021/06/19 03:34:58;;;;;;;5.65;4.90;;;22.60;65.10;;;;;;4998096;28;20389;-69
2021/06/19 03:37:24;;;;;;;9.13;4.97;;;22.60;64.50;;;;;;4995311;28;20263;-69
2021/06/19 03:39:49;;;;;;;7.45;4.85;;;22.60;64.70;;;;;;4993295;28;20030;-70
2021/06/19 03:42:15;;;;;;;10.27;4.90;;;22.50;64.80;;;;;;4997109;28;20049;-69
2021/06/19 03:44:41;;;;;;;5.30;4.80;;;22.50;65.00;;;;;;4994736;28;20824;-69
2021/06/19 03:47:06;;;;;;;8.48;4.97;;;22.40;65.10;;;;;;5001176;28;20041;-68
2021/06/19 03:49:32;;;;;;;5.72;4.90;;;22.40;65.30;;;;;;4997266;28;20034;-69
2021/06/19 03:51:57;;;;;;;7.13;4.95;;;22.40;65.50;;;;;;4993267;28;20524;-68
2021/06/19 03:54:23;;;;;;;5.22;4.72;;;22.40;65.50;;;;;;4997544;28;20057;-69
2021/06/19 03:56:49;;;;;;;6.18;4.80;;;22.40;65.50;;;;;;4996746;28;20034;-68
2021/06/19 03:59:14;;;;;;;8.32;5.05;;;22.40;65.70;;;;;;4997063;28;20520;-69
2021/06/19 04:01:40;;;;;;;7.20;4.88;;;22.40;65.80;;;;;;4992752;28;20037;-69
2021/06/19 04:04:05;;;;;;;7.10;5.20;;;22.40;66.20;;;;;;4994156;28;20038;-69
2021/06/19 04:06:31;;;;;;;7.45;5.30;;;22.40;66.40;;;;;;4993773;28;20041;-69
2021/06/19 04:08:57;;;;;;;6.93;5.20;;;22.40;66.40;;;;;;4996993;28;20042;-69
2021/06/19 04:11:22;;;;;;;8.38;5.45;;;22.50;67.10;;;;;;4992946;28;20061;-69
2021/06/19 04:13:48;;;;;;;6.88;5.25;;;22.50;66.50;;;;;;4996556;28;20041;-69
2021/06/19 04:16:14;;;;;;;7.57;5.60;;;22.50;66.60;;;;;;4996808;28;20129;-68
2021/06/19 04:18:40;;;;;;;7.13;5.55;;;22.60;66.50;;;;;;4993599;28;20065;-69
2021/06/19 04:21:07;;;;;;;9.98;5.55;;;22.60;66.60;;;;;;4993050;28;20038;-69
2021/06/19 04:23:33;;;;;;;9.30;5.63;;;22.70;66.60;;;;;;4991582;28;20029;-69
2021/06/19 04:26:00;;;;;;;9.45;5.63;;;22.70;66.60;;;;;;4991620;28;20101;-69
2021/06/19 04:28:25;;;;;;;6.43;5.53;;;22.80;66.70;;;;;;4992220;28;20034;-69
2021/06/19 04:30:51;;;;;;;7.65;5.97;;;22.80;66.70;;;;;;4998577;28;20030;-69
2021/06/19 04:33:17;;;;;;;8.38;5.65;;;22.90;66.70;;;;;;4996891;28;20037;-69
2021/06/19 04:35:42;;;;;;;9.23;6.13;;;23.00;66.60;;;;;;4996207;28;20027;-69
2021/06/19 04:38:08;;;;;;;8.25;6.07;;;23.00;67.50;;;;;;4990384;28;20766;-69
2021/06/19 04:40:50;;;;;;;10.63;8.00;;;23.10;66.40;;;;;;4993434;28;20111;-69
2021/06/19 04:43:17;;;;;;;11.05;6.72;;;23.20;66.20;;;;;;4995675;28;20038;-69
2021/06/19 04:45:43;;;;;;;9.85;6.32;;;23.30;66.10;;;;;;4992527;28;20048;-69
2021/06/19 04:48:09;;;;;;;6.82;5.88;;;23.30;66.20;;;;;;4993736;28;20582;-69
2021/06/19 04:50:37;;;;;;;8.00;5.82;;;23.40;66.10;;;;;;4993572;28;20080;-69
2021/06/19 04:53:03;;;;;;;8.82;5.63;;;23.50;66.10;;;;;;4994091;28;20053;-69
2021/06/19 04:55:30;;;;;;;7.50;5.70;;;23.60;66.00;;;;;;4992901;28;20490;-69
2021/06/19 04:57:58;;;;;;;7.68;5.80;;;23.60;65.90;;;;;;4993051;28;20034;-69
2021/06/19 05:00:25;;;;;;;7.72;5.53;;;23.60;66.20;;;;;;4988326;28;20034;-69
2021/06/19 05:02:51;;;;;;;7.10;5.65;;;23.70;66.10;;;;;;4993599;28;20072;-69
2021/06/19 05:05:17;;;;;;;10.27;5.72;;;23.70;66.10;;;;;;4992529;28;20565;-69
2021/06/19 05:07:43;;;;;;;6.95;5.63;;;23.80;66.10;;;;;;4989572;28;20171;-69
2021/06/19 05:10:10;;;;;;;8.00;5.28;;;23.80;66.10;;;;;;4993804;28;20072;-69
2021/06/19 05:12:37;;;;;;;7.82;5.25;;;23.80;66.10;;;;;;4987032;28;20460;-69
2021/06/19 05:15:04;;;;;;;9.60;5.80;;;23.90;66.20;;;;;;4991310;28;92513;-69
2021/06/19 05:17:31;;;;;;;7.20;4.90;;;23.90;66.20;;;;;;4992680;28;20728;-69
2021/06/19 05:19:57;;;;;;;7.50;5.25;;;23.90;65.70;;;;;;4995590;28;20030;-69
2021/06/19 05:22:24;;;;;;;5.40;4.85;;;24.00;65.70;;;;;;4996201;28;20039;-69
2021/06/19 05:24:50;;;;;;;7.70;5.50;;;24.00;65.30;;;;;;4993294;28;20049;-69
2021/06/19 05:27:16;;;;;;;10.52;5.47;;;24.00;65.30;;;;;;4993559;28;20053;-69
2021/06/19 05:29:42;;;;;;;5.70;5.20;;;24.00;65.20;;;;;;4995138;28;20029;-70
2021/06/19 05:32:09;;;;;;;7.60;5.60;;;24.00;65.30;;;;;;4989711;28;20494;-69
2021/06/19 05:34:34;;;;;;;8.93;5.55;;;24.10;65.50;;;;;;4994153;28;20030;-69
2021/06/19 05:37:00;;;;;;;12.10;6.30;;;24.10;65.30;;;;;;4995323;28;20489;-69
2021/06/19 05:39:26;;;;;;;11.25;6.03;;;24.10;65.50;;;;;;4999458;28;20080;-69
2021/06/19 05:41:52;;;;;;;10.32;5.82;;;24.10;66.30;;;;;;4990914;28;20038;-69
2021/06/19 05:44:17;;;;;;;6.20;5.15;;;24.20;65.20;;;;;;4992833;28;20030;-69
2021/06/19 05:46:43;;;;;;;9.73;5.78;;;24.30;65.80;;;;;;4994161;28;20034;-69
2021/06/19 05:49:09;;;;;;;7.30;5.57;;;24.30;65.40;;;;;;4993349;28;20042;-69
2021/06/19 05:51:35;;;;;;;12.63;6.15;;;24.40;65.20;;;;;;4991645;28;20442;-69
2021/06/19 05:54:02;;;;;;;8.30;5.80;;;24.40;65.20;;;;;;4994981;28;20069;-69
2021/06/19 05:56:28;;;;;;;7.63;5.95;;;24.50;64.90;;;;;;4992413;28;20038;-69
2021/06/19 05:58:54;;;;;;;9.20;6.20;;;24.60;64.60;;;;;;4993989;28;20056;-69
2021/06/19 06:01:20;;;;;;;6.30;5.57;;;24.60;64.50;;;;;;4992836;28;20049;-70
2021/06/19 06:03:48;;;;;;;8.02;5.63;;;24.70;64.30;;;;;;4985495;28;20042;-69
2021/06/19 06:06:14;;;;;;;10.50;5.82;;;24.70;64.20;;;;;;4997033;28;20050;-71
2021/06/19 06:08:39;;;;;;;7.57;5.70;;;24.80;65.10;;;;;;4990335;28;20129;-69
2021/06/19 06:11:05;;;;;;;10.25;6.00;;;24.80;63.90;;;;;;4991516;28;20180;-69
2021/06/19 06:13:31;;;;;;;7.38;5.78;;;24.90;63.70;;;;;;4991755;28;20038;-70
2021/06/19 06:15:56;;;;;;;9.55;6.00;;;24.90;63.80;;;;;;4993403;28;20033;-69
2021/06/19 06:18:22;;;;;;;8.40;5.95;;;25.00;63.80;;;;;;4993989;28;20592;-69
2021/06/19 06:20:47;;;;;;;9.02;5.57;;;25.00;63.60;;;;;;4994301;28;20525;-68
2021/06/19 06:23:13;;;;;;;5.78;5.25;;;25.00;63.70;;;;;;4993602;28;20038;-69
2021/06/19 06:25:39;;;;;;;9.55;5.18;;;25.10;63.40;;;;;;4995834;28;20038;-68
2021/06/19 06:28:05;;;;;;;8.73;5.85;;;25.20;63.60;;;;;;4979452;28;20039;-69
2021/06/19 06:30:31;;;;;;;8.73;6.25;;;25.20;63.30;;;;;;4987296;28;20053;-69
2021/06/19 06:32:56;;;;;;;9.50;6.05;;;25.30;63.50;;;;;;4983463;28;20044;-69
2021/06/19 06:35:22;;;;;;;10.07;5.72;;;25.30;63.70;;;;;;4985859;28;20382;-68
2021/06/19 06:37:47;;;;;;;7.53;5.88;;;25.40;64.00;;;;;;4984340;28;21782;-68
2021/06/19 06:40:14;;;;;;;6.53;5.88;;;25.40;64.00;;;;;;4982608;28;20044;-68
2021/06/19 06:42:43;;;;;;;6.35;5.75;;;25.50;64.00;;;;;;4985264;28;20523;-68
2021/06/19 06:45:10;;;;;;;10.75;6.32;;;25.50;63.40;;;;;;4986364;28;20718;-68
2021/06/19 06:47:38;;;;;;;6.78;5.80;;;25.60;63.20;;;;;;4991194;28;20053;-68
2021/06/19 06:50:05;;;;;;;8.55;5.85;;;25.70;63.10;;;;;;4989535;28;21834;-68
2021/06/19 06:52:31;;;;;;;7.35;5.85;;;25.80;63.10;;;;;;4987567;28;20478;-69
2021/06/19 06:54:57;;;;;;;9.73;5.63;;;25.80;62.70;;;;;;4990749;28;20033;-68
2021/06/19 06:57:22;;;;;;;9.75;5.55;;;25.90;62.60;;;;;;4986353;28;20035;-68
2021/06/19 06:59:48;;;;;;;11.93;6.00;;;25.90;62.50;;;;;;4989875;28;20057;-68
2021/06/19 07:02:14;;;;;;;10.40;5.80;;;26.00;62.80;;;;;;4992728;28;20432;-69
2021/06/19 07:04:39;;;;;;;10.38;5.68;;;26.00;62.80;;;;;;4986116;28;20080;-69
2021/06/19 07:07:05;;;;;;;7.20;5.50;;;26.10;62.60;;;;;;4986639;28;20034;-68
2021/06/19 07:09:30;;;;;;;8.50;5.78;;;26.20;62.80;;;;;;4987139;28;20900;-68
2021/06/19 07:11:56;;;;;;;10.43;5.68;;;26.30;62.30;;;;;;4983220;28;20539;-69
2021/06/19 07:14:22;;;;;;;7.85;5.55;;;26.40;62.30;;;;;;4997295;28;20030;-69
2021/06/19 07:16:47;;;;;;;8.52;5.50;;;26.40;62.10;;;;;;4992297;28;20455;-69
2021/06/19 07:19:13;;;;;;;8.65;5.45;;;26.50;61.60;;;;;;4990551;28;20022;-69
2021/06/19 07:21:38;;;;;;;8.25;5.72;;;26.60;61.50;;;;;;4991155;28;20853;-69
2021/06/19 07:24:05;;;;;;;8.63;5.18;;;26.70;61.30;;;;;;4979039;28;20033;-68
2021/06/19 07:26:30;;;;;;;6.15;5.53;;;26.70;61.40;;;;;;4986003;28;20539;-68
2021/06/19 07:28:56;;;;;;;10.27;5.57;;;26.80;61.30;;;;;;4987806;28;20513;-69
2021/06/19 07:31:22;;;;;;;8.48;5.30;;;26.90;61.30;;;;;;4988699;28;20508;-69
2021/06/19 07:33:47;;;;;;;7.78;5.72;;;27.00;61.30;;;;;;4993977;28;20512;-69
2021/06/19 07:36:13;;;;;;;7.65;5.82;;;27.00;60.80;;;;;;4991860;28;20437;-69
2021/06/19 07:38:39;;;;;;;6.82;5.00;;;27.10;60.50;;;;;;4990581;28;20758;-69
2021/06/19 07:41:04;;;;;;;6.43;5.80;;;27.20;60.70;;;;;;4987387;28;20092;-68
2021/06/19 07:43:30;;;;;;;6.25;5.60;;;27.20;60.70;;;;;;4987479;28;20172;-69
2021/06/19 07:45:56;;;;;;;5.90;5.22;;;27.30;60.60;;;;;;4990680;28;20179;-69
2021/06/19 07:48:23;;;;;;;9.93;5.70;;;27.30;60.20;;;;;;4991378;28;20042;-69
2021/06/19 07:50:49;;;;;;;11.15;5.68;;;27.40;59.70;;;;;;4987210;28;20214;-69
2021/06/19 07:53:14;;;;;;;10.55;5.28;;;27.50;59.40;;;;;;4984925;28;20034;-69
2021/06/19 07:55:40;;;;;;;11.93;5.75;;;27.50;59.30;;;;;;4985361;28;20084;-69
2021/06/19 07:58:06;;;;;;;9.60;5.82;;;27.60;59.00;;;;;;4986880;28;20541;-69
2021/06/19 08:00:31;;;;;;;10.48;5.13;;;27.60;59.20;;;;;;4988545;28;20126;-68
2021/06/19 08:02:58;;;;;;;11.68;5.72;;;27.70;58.80;;;;;;4989081;28;20637;-68
2021/06/19 08:05:24;;;;;;;11.05;5.47;;;27.80;58.70;;;;;;4990328;28;20714;-69
2021/06/19 08:07:51;;;;;;;10.52;5.38;;;27.90;58.30;;;;;;4992919;28;20478;-69
2021/06/19 08:10:16;;;;;;;9.18;5.28;;;28.00;58.40;;;;;;4997235;28;20035;-69
2021/06/19 08:12:43;;;;;;;8.55;5.20;;;28.10;58.10;;;;;;4991167;28;20042;-69
2021/06/19 08:15:09;;;;;;;8.00;4.88;;;28.20;57.70;;;;;;4992156;28;20117;-69
2021/06/19 08:17:35;;;;;;;7.03;5.03;;;28.30;57.90;;;;;;4995800;28;20041;-69
2021/06/19 08:20:00;;;;;;;8.05;4.95;;;28.40;57.50;;;;;;4999641;28;20110;-69
2021/06/19 08:22:27;;;;;;;6.53;4.88;;;28.60;57.50;;;;;;4997762;28;20523;-69
2021/06/19 08:24:53;;;;;;;6.72;4.32;;;28.70;57.20;;;;;;5003800;28;20030;-69
2021/06/19 08:27:22;;;;;;;7.20;4.82;;;28.70;56.80;;;;;;4998730;28;20120;-69
2021/06/19 08:29:49;;;;;;;7.85;3.83;;;28.90;56.40;;;;;;4998925;28;20461;-69
2021/06/19 08:32:16;;;;;;;9.90;4.25;;;28.90;55.00;;;;;;4999621;28;20652;-69
2021/06/19 08:34:42;;;;;;;8.23;4.05;;;29.10;54.40;;;;;;4998294;28;20481;-69
2021/06/19 08:37:07;;;;;;;8.88;4.05;;;29.10;54.00;;;;;;4999546;28;20031;-69
2021/06/19 08:39:33;;;;;;;9.05;3.90;;;29.20;53.80;;;;;;4999947;28;20295;-69
2021/06/19 08:41:59;;;;;;;6.82;3.70;;;29.30;52.60;;;;;;4997454;28;20026;-69
2021/06/19 08:44:29;;;;;;;9.15;3.83;;;29.40;53.20;;;;;;4998521;28;20035;-69
2021/06/19 08:46:56;;;;;;;5.32;3.63;;;29.40;53.00;;;;;;4999915;28;20045;-69
2021/06/19 08:49:23;;;;;;;7.07;3.70;;;29.50;52.60;;;;;;4998426;28;20042;-69
2021/06/19 08:51:53;;;;;;;7.40;3.80;;;29.50;52.30;;;;;;5005286;28;20586;-69
2021/06/19 08:54:21;;;;;;;9.30;3.92;;;29.50;52.50;;;;;;4998397;28;20038;-69
2021/06/19 08:56:47;;;;;;;10.75;4.00;;;29.60;52.10;;;;;;4998833;28;20057;-69
2021/06/19 08:59:14;;;;;;;6.97;3.72;;;29.60;52.00;;;;;;4999738;28;20045;-69
2021/06/19 09:01:40;;;;;;;9.25;3.92;;;29.70;51.70;;;;;;4997848;28;20121;-69
2021/06/19 09:04:08;;;;;;;8.73;4.20;;;29.80;51.90;;;;;;4997843;28;20446;-69
2021/06/19 09:06:44;;;;;;;6.82;4.10;;;29.90;51.90;;;;;;4997957;28;20058;-69
2021/06/19 09:09:18;;;;;;;7.28;4.05;;;29.90;51.30;;;;;;4998649;28;20591;-70
2021/06/19 09:11:44;;;;;;;10.10;4.13;;;30.00;51.70;;;;;;4998531;28;20113;-70
2021/06/19 09:14:12;;;;;;;8.68;4.18;;;30.10;51.60;;;;;;4997543;28;20678;-69
2021/06/19 09:16:40;;;;;;;5.60;3.75;;;30.30;51.00;;;;;;5003251;28;20033;-69
2021/06/19 09:19:22;;;;;;;12.00;4.00;;;30.30;50.40;;;;;;4997869;28;20030;-69
2021/06/19 09:21:48;;;;;;;6.22;4.18;;;30.40;49.70;;;;;;4999488;28;20054;-69
2021/06/19 09:24:14;;;;;;;7.28;3.78;;;30.50;50.00;;;;;;5001233;28;20114;-69
2021/06/19 09:26:40;;;;;;;6.05;3.80;;;30.60;50.30;;;;;;5001699;28;20520;-69
2021/06/19 09:29:09;;;;;;;7.32;3.63;;;30.60;49.90;;;;;;4997022;28;20042;-69
2021/06/19 09:31:39;;;;;;;9.40;3.83;;;30.70;49.30;;;;;;4998988;28;20648;-69
2021/06/19 09:34:06;;;;;;;7.40;3.40;;;30.80;49.20;;;;;;4997295;28;20132;-69
2021/06/19 09:36:40;;;;;;;7.90;3.75;;;30.80;49.00;;;;;;4991962;28;20073;-69
2021/06/19 09:39:08;;;;;;;6.50;3.90;;;30.80;48.60;;;;;;4998150;28;20510;-69
2021/06/19 09:41:38;;;;;;;6.75;3.35;;;30.80;48.80;;;;;;4998701;28;20034;-69
2021/06/19 09:44:04;;;;;;;6.80;3.47;;;30.90;48.30;;;;;;4997036;28;20087;-69
2021/06/19 09:46:30;;;;;;;5.88;3.40;;;31.00;48.50;;;;;;4996901;28;20743;-69
2021/06/19 09:49:09;;;;;;;6.53;3.47;;;31.00;48.60;;;;;;4994005;28;20080;-70
2021/06/19 09:51:35;;;;;;;6.00;3.50;;;31.10;48.30;;;;;;4998736;28;20030;-69
2021/06/19 09:54:06;;;;;;;5.18;3.30;;;31.20;48.50;;;;;;5002961;28;20038;-69
2021/06/19 09:56:45;;;;;;;6.80;3.88;;;31.30;47.90;;;;;;4997458;28;20042;-70
2021/06/19 09:59:19;;;;;;;7.32;3.40;;;31.30;47.80;;;;;;4996664;28;20038;-69
2021/06/19 10:01:44;;;;;;;6.72;3.45;;;31.40;47.70;;;;;;4998137;28;20350;-70
2021/06/19 10:04:15;;;;;;;7.32;3.58;;;31.40;47.60;;;;;;4996510;28;20137;-70
2021/06/19 10:06:41;;;;;;;6.55;3.08;;;31.50;47.50;;;;;;4997762;28;20521;-70
2021/06/19 10:09:08;;;;;;;7.70;3.50;;;31.60;47.10;;;;;;4996188;28;20046;-70
2021/06/19 10:11:34;;;;;;;8.23;3.50;;;31.60;46.90;;;;;;5000447;28;20035;-69
2021/06/19 10:14:01;;;;;;;8.55;3.63;;;31.60;46.50;;;;;;4997122;28;20034;-69
2021/06/19 10:16:29;;;;;;;8.65;3.55;;;31.70;46.50;;;;;;4996473;28;20408;-69
2021/06/19 10:18:56;;;;;;;8.75;3.40;;;31.70;46.80;;;;;;4997933;28;20034;-69
2021/06/19 10:21:23;;;;;;;8.48;3.10;;;31.80;47.00;;;;;;4997297;28;20042;-69
2021/06/19 10:23:49;;;;;;;9.20;3.55;;;31.80;47.60;;;;;;4998022;28;20130;-69
2021/06/19 10:26:15;;;;;;;6.10;3.40;;;31.90;46.50;;;;;;5001044;28;20048;-69
2021/06/19 10:28:47;;;;;;;8.43;3.15;;;32.00;46.40;;;;;;5001626;28;20041;-70
2021/06/19 10:31:17;;;;;;;11.80;4.05;;;32.00;45.90;;;;;;5001746;28;20062;-70
2021/06/19 10:33:43;;;;;;;6.40;3.38;;;32.00;45.50;;;;;;5006183;28;20026;-69
2021/06/19 10:36:11;;;;;;;7.03;3.60;;;32.10;45.30;;;;;;5000034;28;20527;-69
2021/06/19 10:38:54;;;;;;;5.80;3.40;;;32.10;44.90;;;;;;5001492;28;20037;-70
2021/06/19 10:41:43;;;;;;;6.25;3.53;;;32.10;44.90;;;;;;5000945;28;20061;-69
2021/06/19 10:44:09;;;;;;;6.88;3.78;;;32.10;45.00;;;;;;5001722;28;20512;-70
2021/06/19 10:46:40;;;;;;;14.10;3.65;;;32.10;45.20;;;;;;4999151;28;20049;-70
2021/06/19 10:49:18;;;;;;;8.00;3.70;;;32.20;45.30;;;;;;5001447;28;20037;-69
2021/06/19 10:51:43;;;;;;;8.88;3.70;;;32.20;45.30;;;;;;4999449;28;20128;-69
2021/06/19 10:54:09;;;;;;;7.05;3.55;;;32.30;45.10;;;;;;5000630;28;20121;-69
2021/06/19 10:56:56;;;;;;;9.55;3.90;;;32.30;45.20;;;;;;5000729;28;20038;-69
2021/06/19 10:59:23;;;;;;;6.35;3.33;;;32.40;44.90;;;;;;5002074;28;20026;-70
2021/06/19 11:01:50;;;;;;;6.80;3.17;;;32.40;44.60;;;;;;5001279;28;20037;-69
2021/06/19 11:04:35;;;;;;;10.30;3.40;;;32.40;44.30;;;;;;5001048;28;20088;-69
2021/06/19 11:07:05;;;;;;;8.25;3.08;;;32.40;44.20;;;;;;5000873;28;20038;-70
2021/06/19 11:09:45;;;;;;;8.63;3.60;;;32.50;44.00;;;;;;5006974;28;20045;-69
2021/06/19 11:12:22;;;;;;;6.05;3.25;;;32.50;43.60;;;;;;5001599;28;20449;-69
2021/06/19 11:15:05;;;;;;;6.63;3.30;;;32.60;43.50;;;;;;4997512;28;20038;-69
2021/06/19 11:17:34;;;;;;;5.53;2.97;;;32.60;43.40;;;;;;5000531;28;20356;-69
2021/06/19 11:20:09;;;;;;;6.60;3.10;;;32.70;43.60;;;;;;5003829;28;20470;-69
2021/06/19 11:22:43;;;;;;;7.32;3.35;;;32.70;43.50;;;;;;4997791;28;20133;-69
2021/06/19 11:25:24;;;;;;;8.35;3.03;;;32.80;43.60;;;;;;4999876;28;20596;-69
2021/06/19 11:28:00;;;;;;;7.40;3.00;;;32.80;42.30;;;;;;4997915;28;20053;-69
2021/06/19 11:30:34;;;;;;;7.25;3.00;;;32.80;42.70;;;;;;4998090;28;20068;-70
2021/06/19 11:33:22;;;;;;;6.47;3.42;;;32.90;42.30;;;;;;5000579;28;20072;-69
2021/06/19 11:35:53;;;;;;;5.38;3.35;;;32.90;42.30;;;;;;5005380;28;20030;-69
2021/06/19 11:38:20;;;;;;;7.38;3.67;;;32.90;42.70;;;;;;5006335;28;20034;-69
2021/06/19 11:40:47;;;;;;;7.35;3.17;;;33.00;42.50;;;;;;5001315;28;20088;-69
2021/06/19 11:43:15;;;;;;;8.25;3.65;;;33.00;43.10;;;;;;4999718;28;20124;-69
2021/06/19 11:45:41;;;;;;;4.85;3.22;;;33.00;42.90;;;;;;4999632;28;20111;-69
2021/06/19 11:48:10;;;;;;;6.78;3.53;;;33.10;42.90;;;;;;4999300;28;20041;-69
2021/06/19 11:50:38;;;;;;;5.32;3.42;;;33.20;42.80;;;;;;4999003;28;20117;-69
2021/06/19 11:53:23;;;;;;;6.05;3.72;;;33.20;43.00;;;;;;4999921;28;20035;-68
2021/06/19 11:55:50;;;;;;;9.82;3.85;;;33.30;43.50;;;;;;5000678;28;20057;-69
2021/06/19 11:58:15;;;;;;;7.75;4.00;;;33.30;43.30;;;;;;5005492;28;20125;-70
2021/06/19 12:00:54;;;;;;;8.27;3.92;;;33.30;43.10;;;;;;4997444;28;20896;-69
2021/06/19 12:03:22;;;;;;;6.90;3.53;;;33.30;42.90;;;;;;4996517;28;20046;-69
2021/06/19 12:05:48;;;;;;;6.72;3.60;;;33.40;42.90;;;;;;4996444;28;21015;-69
2021/06/19 12:08:14;;;;;;;7.97;3.83;;;33.40;43.20;;;;;;4994273;28;20056;-69
2021/06/19 12:10:39;;;;;;;7.25;3.45;;;33.40;42.80;;;;;;4993039;28;20510;-69
2021/06/19 12:13:07;;;;;;;4.75;3.28;;;33.50;42.30;;;;;;4995154;28;20034;-68
2021/06/19 12:15:34;;;;;;;7.88;3.85;;;33.50;42.10;;;;;;4990809;28;20124;-69
2021/06/19 12:18:03;;;;;;;5.85;3.55;;;33.50;43.00;;;;;;4998443;28;20061;-69
2021/06/19 12:20:29;;;;;;;5.82;3.47;;;33.50;42.40;;;;;;4993492;28;20041;-69
2021/06/19 12:22:55;;;;;;;9.82;3.85;;;33.50;42.60;;;;;;4991746;28;20042;-69
2021/06/19 12:25:31;;;;;;;18.85;3.90;;;33.60;42.30;;;;;;4994630;28;20122;-68
2021/06/19 12:27:58;;;;;;;4.75;3.35;;;33.60;40.70;;;;;;4996997;28;20057;-69
2021/06/19 12:30:23;;;;;;;5.38;3.25;;;33.50;41.70;;;;;;4992204;28;20054;-69
2021/06/19 12:32:49;;;;;;;5.90;3.17;;;33.50;41.00;;;;;;4994944;28;20030;-69
2021/06/19 12:35:18;;;;;;;5.25;3.17;;;33.50;40.50;;;;;;4995116;28;20600;-69
2021/06/19 12:37:55;;;;;;;4.72;3.15;;;33.50;40.40;;;;;;4998073;28;20520;-68
2021/06/19 12:40:35;;;;;;;6.70;3.42;;;33.50;39.80;;;;;;4995936;28;20604;-69
2021/06/19 12:43:09;;;;;;;6.78;3.67;;;33.50;40.00;;;;;;4997127;28;20121;-69
2021/06/19 12:45:44;;;;;;;13.27;3.83;;;33.50;40.20;;;;;;4995249;28;20039;-69
2021/06/19 12:48:29;;;;;;;4.45;3.42;;;33.40;40.60;;;;;;4998131;28;20723;-69